• Join FlightAware (Why Join?)
  • Login
  • US Flag 
05:29PM EDT


 

Airport Tracker/Info


-or-


 

Live Flight TrackerFlight Track Log ✈ SWA1017 ✈ 19-Apr-2013 ✈ KHRL - KAUS

Flight Track Log - Related Links

Times and Time Zones

All times are in EDT time to prevent confusion due to time zone crossing. See the SWA1017 flight status page for this flight to view local times or setup timezone preferences in your user account.

Time Position Orientation Groundspeed Altitude Reporting Facility
EDT Latitude Longitude Course Direction KTS MPH feet Rate Location/Type
03:00PM 26.2375 -97.6589 359° North 147 169 600  Level Houston Center
03:01PM 26.2917 -97.6594 359° North 173 199 2,700 1,620 Climbing Houston Center
03:01PM 26.3136 -97.6603 358° North 206 237 3,100 360 Climbing Houston Center
03:02PM 26.3561 -97.6589 North 226 260 3,100  Level Houston Center
03:02PM 26.3806 -97.6583 North 240 276 3,100 1,800 Level Houston Center
03:03PM 26.4294 -97.6514 North 251 289 5,000 2,940 Climbing Houston Center
03:04PM 26.4953 -97.6428 North 251 289 8,200 2,700 Climbing Houston Center
03:05PM 26.5831 -97.6297 North 296 341 10,700 2,880 Climbing Houston Center
03:06PM 26.6844 -97.6147 North 363 418 14,200 3,360 Climbing Houston Center
03:07PM 26.7981 -97.5992 North 386 444 17,700 2,880 Climbing Houston Center
03:08PM 26.9067 -97.5842 North 393 452 20,300 2,400 Climbing Houston Center
03:09PM 27.0336 -97.5675 North 425 489 22,800 2,220 Climbing Houston Center
03:10PM 27.1544 -97.5622 North 409 471 24,900 1,980 Climbing Houston Center
03:11PM 27.2697 -97.6019 343° North 433 498 26,900 2,040 Climbing Houston Center
03:12PM 27.3861 -97.6425 343° North 437 503 29,200 2,460 Climbing Houston Center
03:13PM 27.4969 -97.6828 342° North 427 491 32,100 2,160 Climbing Houston Center
03:14PM 27.6039 -97.7217 342° North 411 473 33,700 1,800 Climbing Houston Center
03:15PM 27.7372 -97.7683 343° North 416 479 35,800 1,080 Climbing Houston Center
03:16PM 27.8461 -97.8092 342° North 416 479 36,000 60 Climbing Houston Center
03:17PM 27.9536 -97.8461 343° North 409 471 36,000  Level Houston Center
03:18PM 28.0608 -97.8853 342° North 408 470 36,000  Level Houston Center
03:19PM 28.1667 -97.9225 343° North 404 465 36,000  Level Houston Center
03:20PM 28.2772 -97.9636 342° North 409 471 36,000  Level Houston Center
03:21PM 28.4075 -98.0114 342° North 409 471 36,000  Level Houston Center
03:22PM 28.5144 -98.0478 343° North 403 464 36,000  Level Houston Center
03:23PM 28.6233 -98.0881 342° North 406 467 36,000  Level Houston Center
03:25PM 28.7419 -98.1319 342° North 406 467 36,000 -1,020 Level Houston Center
03:26PM 28.8589 -98.1731 343° North 405 466 34,000 -2,220 Descending Houston Center
03:27PM 28.9631 -98.2125 342° North 394 453 31,500 -3,360 Descending Houston Center
03:28PM 29.0808 -98.2550 342° North 414 476 27,100 -2,880 Descending Houston Center
03:29PM 29.1925 -98.2947 343° North 417 480 25,500 -1,500 Descending Houston Center
03:30PM 29.3025 -98.3361 342° North 386 444 24,000 -780 Descending Houston Center
03:31PM 29.4069 -98.3739 343° North 392 451 24,000 -360 Level Houston Center
03:32PM 29.5167 -98.4136 343° North 387 445 23,300 -780 Descending Houston Center
03:33PM 29.5969 -98.4436 342° North 378 435 22,400 -1,020 Descending Houston Center
03:34PM 29.7144 -98.4114 13° North 387 445 21,200 -1,200 Descending Houston Center
03:35PM 29.8053 -98.3453 32° Northeast 386 444 20,000 -1,440 Descending Houston Center
03:36PM 29.8994 -98.2778 32° Northeast 371 427 18,200 -1,560 Descending Houston Center
03:37PM 29.9836 -98.2169 32° Northeast 357 411 16,700 -1,680 Descending Houston Center
03:38PM 30.0725 -98.1522 32° Northeast 349 402 14,800 -1,800 Descending Houston Center
03:39PM 30.1350 -98.0728 48° Northeast 344 396 13,100 -1,800 Descending Houston Center
03:40PM 30.1958 -97.9969 47° Northeast 325 374 11,100 -1,920 Descending Houston Center
03:41PM 30.2358 -97.9128 61° Northeast 300 345 9,200 -1,440 Descending Houston Center
03:42PM 30.2336 -97.8281 92° East 298 343 8,200 -1,080 Descending Houston Center
03:43PM 30.1703 -97.7753 144° Southeast 282 325 7,000 -960 Descending Houston Center
03:44PM 30.0986 -97.7678 175° South 263 303 6,200 -1,080 Descending Houston Center
03:45PM 30.0400 -97.7544 169° South 214 246 4,800 -1,380 Descending Houston Center
03:46PM 30.0597 -97.7106 63° Northeast 163 188 3,400 -1,260 Descending Houston Center
03:47PM 30.0944 -97.6850 32° Northeast 156 180 2,200 -960 Descending Houston Center
03:48PM 30.1297 -97.6739 15° North 142 163 1,500 -540 Descending Houston Center
03:49PM 30.1714 -97.6744 359° North 138 159 1,200 -300 Descending Houston Center
03:51PM 30.1833 -97.6667 North  Level FlightAware Approximate
03:58PM 30.1945 -97.6699 North  Level Estimated